This demonstration page uses our WeatherBlox Daily Observations layout. Learn more.

38.88101, -77.10428

Hourly Observations for April 13, 2018

Temp ( °F °C ) Dew Point ( °F °C ) Humidity (%) Winds ( mph kmh ) Pressure ( in mb ) Visibility ( mi km ) Precip ( " mm )
12:52 am 00:52 Partly Cloudy 68 20 41 5 38 38 SSW 17 28 29.9 1012 10 16.0934 0 0
1:52 am 01:52 Mostly Clear 67 19.4 41 5 39 39 SSW 15 24 29.9 1013 10 16.0934 0 0
2:52 am 02:52 Clear 65 18.3 41 5 42 42 SSW 12 19 29.9 1013 10 16.0934 0 0
3:52 am 03:52 Mostly Cloudy 65 18.3 41 5 42 42 SSW 10 17 29.93 1014 10 16.0934 0 0
4:52 am 04:52 Mostly Cloudy 61 16.1 45 7.2 56 56 S 12 19 29.94 1014 10 16.0934 0 0
5:52 am 05:52 Cloudy 61 16.1 44 6.7 54 54 S 12 19 29.94 1014 10 16.0934 0 0
6:52 am 06:52 Cloudy 62 16.7 42 5.6 48 48 SSW 12 19 29.98 1015 10 16.0934 0 0
7:52 am 07:52 Cloudy 62 16.7 42 5.6 48 48 SSW 12 19 30 1016 10 16.0934 0 0
8:52 am 08:52 Mostly Cloudy 65 18.3 43 6.1 45 45 SSW 13 20 30.01 1016 10 16.0934 0 0
9:52 am 09:52 Cloudy 65 18.3 45 7.2 49 49 S 13 20 30.01 1016 10 16.0934 0 0
10:52 am 10:52 Mostly Cloudy 68 20 47 8.3 47 47 S 15 24 30 1016 10 16.0934 0 0
11:52 am 11:52 Mostly Cloudy 73 22.8 48 8.9 41 41 S 13 20 29.99 1016 10 16.0934 0 0
12:52 pm 12:52 Partly Cloudy 77 25 48 8.9 36 36 S 13 20 29.96 1015 10 16.0934 0 0
1:52 pm 13:52 Mostly Sunny 83 28.3 46 7.8 27 27 S 12 19 29.93 1014 10 16.0934 0 0
2:52 pm 14:52 Mostly Sunny 85 29.4 45 7.2 25 25 SSW 20 31 29.91 1013 10 16.0934 0 0
3:52 pm 15:52 Mostly Sunny 85 29.4 45 7.2 25 25 S 15 24 29.89 1012 10 16.0934 0 0
4:52 pm 16:52 Mostly Cloudy 85 29.4 45 7.2 25 25 S 17 28 29.87 1012 10 16.0934 0 0
5:52 pm 17:52 Partly Cloudy 84 28.9 44 6.7 25 25 SSW 17 28 29.87 1012 10 16.0934 0 0
6:52 pm 18:52 Cloudy 81 27.2 45 7.2 28 28 S 15 24 29.87 1012 10 16.0934 0 0
7:52 pm 19:52 Mostly Cloudy 80 26.7 44 6.7 28 28 SSW 17 28 29.88 1012 10 16.0934 0 0
8:52 pm 20:52 Partly Cloudy 77 25 45 7.2 32 32 SSW 14 22 29.91 1013 10 16.0934 0 0
9:52 pm 21:52 Mostly Clear 76 24.4 46 7.8 35 35 SSW 14 22 29.92 1013 10 16.0934 0 0
10:52 pm 22:52 Mostly Clear 76 24.4 47 8.3 36 36 SSW 17 28 29.92 1013 10 16.0934 0 0
11:52 pm 23:52 Clear 74 23.3 48 8.9 40 40 SSW 13 20 29.92 1013 10 16.0934 0 0

Powered by AerisWeather